Time;durP1;ratioP1;P1;durP2;ratioP2;P2;SDS_P1;SDS_P2;PMS_P1;PMS_P2;Temp;Humidity;BMP_temperature;BMP_pressure;BME280_temperature;BME280_humidity;BME280_pressure;Samples;Min_cycle;Max_cycle;Signal;HPM_P1;HPM_P2
2021/07/08 00:02:19;;;;;;;20.35;18.85;;;17.50;87.90;;;;;;4993680;29;20472;-72
2021/07/08 00:04:51;;;;;;;20.98;19.30;;;17.50;88.00;;;;;;4992771;29;20415;-72
2021/07/08 00:07:23;;;;;;;20.92;19.42;;;17.50;88.80;;;;;;4995322;29;20115;-71
2021/07/08 00:09:55;;;;;;;20.73;19.23;;;17.50;89.00;;;;;;4995138;29;20053;-72
2021/07/08 00:12:27;;;;;;;21.60;20.00;;;17.50;89.30;;;;;;4996039;29;20470;-72
2021/07/08 00:14:59;;;;;;;22.13;20.42;;;17.50;89.30;;;;;;4993967;29;20111;-71
2021/07/08 00:17:31;;;;;;;22.20;20.60;;;17.50;89.10;;;;;;4994837;29;20149;-71
2021/07/08 00:20:09;;;;;;;22.60;20.70;;;17.50;88.70;;;;;;4994989;29;20426;-71
2021/07/08 00:22:40;;;;;;;21.70;20.10;;;17.40;88.40;;;;;;5008508;29;20046;-70
2021/07/08 00:25:16;;;;;;;21.90;20.10;;;17.50;88.50;;;;;;4992648;29;20082;-70
2021/07/08 00:27:48;;;;;;;21.63;19.92;;;17.50;88.50;;;;;;4997868;29;20863;-71
2021/07/08 00:30:21;;;;;;;21.90;20.23;;;17.50;88.50;;;;;;4997951;29;20779;-71
2021/07/08 00:32:53;;;;;;;23.08;21.08;;;17.50;88.20;;;;;;4999387;29;20050;-71
2021/07/08 00:35:27;;;;;;;22.10;20.38;;;17.50;88.30;;;;;;4992984;29;20066;-71
2021/07/08 00:37:59;;;;;;;21.80;20.15;;;17.50;88.20;;;;;;4996071;29;20077;-71
2021/07/08 00:40:32;;;;;;;22.30;20.70;;;17.50;88.60;;;;;;4993631;29;20976;-70
2021/07/08 00:43:05;;;;;;;21.65;20.05;;;17.50;88.40;;;;;;4995454;29;20121;-70
2021/07/08 00:45:38;;;;;;;22.95;21.15;;;17.50;88.00;;;;;;4991930;29;20101;-70
2021/07/08 00:48:10;;;;;;;22.15;20.35;;;17.50;89.00;;;;;;4993612;29;20066;-70
2021/07/08 00:50:46;;;;;;;21.65;20.05;;;17.50;89.20;;;;;;4999237;29;20050;-71
2021/07/08 00:53:20;;;;;;;21.50;19.80;;;17.50;88.30;;;;;;4992975;29;20418;-70
2021/07/08 00:56:01;;;;;;;21.52;19.88;;;17.50;88.80;;;;;;5007440;29;20050;-70
2021/07/08 00:58:33;;;;;;;20.55;18.95;;;17.50;88.70;;;;;;4994374;29;20126;-71
2021/07/08 01:01:05;;;;;;;21.63;20.05;;;17.50;88.20;;;;;;4991555;29;20054;-70
2021/07/08 01:03:37;;;;;;;20.65;18.95;;;17.50;88.80;;;;;;5005795;29;20494;-71
2021/07/08 01:06:10;;;;;;;19.80;18.17;;;17.50;88.00;;;;;;4991303;29;20050;-70
2021/07/08 01:08:42;;;;;;;20.48;18.80;;;17.50;87.90;;;;;;4993815;29;20868;-70
2021/07/08 01:11:15;;;;;;;19.95;18.45;;;17.50;88.00;;;;;;4994374;29;20066;-71
2021/07/08 01:13:47;;;;;;;20.67;19.05;;;17.50;88.80;;;;;;4992903;29;20050;-69
2021/07/08 01:16:19;;;;;;;22.20;20.42;;;17.50;89.00;;;;;;4993706;29;20461;-71
2021/07/08 01:18:51;;;;;;;21.38;19.77;;;17.40;89.50;;;;;;4995158;29;20631;-70
2021/07/08 01:21:34;;;;;;;21.52;19.88;;;17.40;89.10;;;;;;4993973;29;20069;-71
2021/07/08 01:24:07;;;;;;;21.58;19.98;;;17.40;89.30;;;;;;4993222;29;20135;-71
2021/07/08 01:26:40;;;;;;;21.98;20.25;;;17.40;88.90;;;;;;5008028;29;20150;-71
2021/07/08 01:29:13;;;;;;;21.95;20.35;;;17.40;89.10;;;;;;4995162;29;20050;-71
2021/07/08 01:31:45;;;;;;;21.75;20.05;;;17.40;88.40;;;;;;4992894;29;20114;-71
2021/07/08 01:34:17;;;;;;;21.02;19.45;;;17.40;89.10;;;;;;4994179;29;20415;-70
2021/07/08 01:37:02;;;;;;;20.30;18.80;;;17.40;89.20;;;;;;4993787;29;20550;-71
2021/07/08 01:39:34;;;;;;;20.30;18.70;;;17.40;88.80;;;;;;5006093;29;20057;-71
2021/07/08 01:42:06;;;;;;;20.13;18.63;;;17.40;88.30;;;;;;4995389;29;20053;-71
2021/07/08 01:44:38;;;;;;;19.63;18.13;;;17.40;88.60;;;;;;4992870;29;20043;-71
2021/07/08 01:47:10;;;;;;;20.02;18.50;;;17.40;88.40;;;;;;4991501;29;20065;-70
2021/07/08 01:49:43;;;;;;;19.60;18.10;;;17.40;88.70;;;;;;4993458;29;20049;-70
2021/07/08 01:52:15;;;;;;;22.13;20.45;;;17.40;89.00;;;;;;4992789;29;20046;-70
2021/07/08 01:54:47;;;;;;;22.55;20.65;;;17.40;89.20;;;;;;4991919;29;20050;-71
2021/07/08 01:57:19;;;;;;;22.13;20.52;;;17.40;89.10;;;;;;4992262;29;20733;-70
2021/07/08 01:59:51;;;;;;;22.35;20.55;;;17.40;88.90;;;;;;4993003;29;20486;-71
2021/07/08 02:02:23;;;;;;;22.08;20.48;;;17.40;88.50;;;;;;4994094;29;20486;-70
2021/07/08 02:04:55;;;;;;;22.38;20.77;;;17.40;88.30;;;;;;5004690;29;20523;-71
2021/07/08 02:07:27;;;;;;;22.65;20.95;;;17.40;88.40;;;;;;5004252;29;20044;-70
2021/07/08 02:09:59;;;;;;;22.83;21.05;;;17.40;88.60;;;;;;4990539;29;20046;-70
2021/07/08 02:12:31;;;;;;;22.75;21.05;;;17.30;88.60;;;;;;4991572;29;20128;-71
2021/07/08 02:15:05;;;;;;;21.58;20.00;;;17.40;88.70;;;;;;4992754;29;20081;-70
2021/07/08 02:17:38;;;;;;;22.27;20.48;;;17.30;88.20;;;;;;4993734;29;20141;-70
2021/07/08 02:20:13;;;;;;;22.40;20.77;;;17.40;88.30;;;;;;4997265;29;20053;-70
2021/07/08 02:22:45;;;;;;;22.25;20.55;;;17.40;88.20;;;;;;5006797;29;20666;-70
2021/07/08 02:25:18;;;;;;;22.75;20.98;;;17.40;88.10;;;;;;4992341;29;20042;-71
2021/07/08 02:27:50;;;;;;;23.08;21.20;;;17.40;88.10;;;;;;4994008;29;20054;-70
2021/07/08 02:30:24;;;;;;;22.17;20.58;;;17.40;87.80;;;;;;4999268;29;20139;-71
2021/07/08 02:32:58;;;;;;;22.77;20.98;;;17.40;87.90;;;;;;4992623;29;20042;-70
2021/07/08 02:35:30;;;;;;;22.70;20.90;;;17.40;87.60;;;;;;4991828;29;20062;-71
2021/07/08 02:38:03;;;;;;;22.98;21.27;;;17.40;88.30;;;;;;4991115;29;20042;-70
2021/07/08 02:40:38;;;;;;;23.48;21.67;;;17.30;88.90;;;;;;4992742;29;20129;-70
2021/07/08 02:43:11;;;;;;;22.80;21.10;;;17.30;88.70;;;;;;4991940;29;20091;-71
2021/07/08 02:45:44;;;;;;;22.05;20.45;;;17.30;88.40;;;;;;5005413;29;20050;-71
2021/07/08 02:48:19;;;;;;;22.75;20.75;;;17.30;88.80;;;;;;4991354;29;20159;-71
2021/07/08 02:50:54;;;;;;;22.17;20.48;;;17.30;88.50;;;;;;4990129;29;20133;-70
2021/07/08 02:53:26;;;;;;;21.52;19.92;;;17.30;88.70;;;;;;4988783;29;20049;-70
2021/07/08 02:55:58;;;;;;;21.58;19.98;;;17.30;89.30;;;;;;4988168;29;20574;-70
2021/07/08 02:58:30;;;;;;;21.38;19.77;;;17.30;88.70;;;;;;4991053;29;20128;-70
2021/07/08 03:01:03;;;;;;;22.42;20.67;;;17.30;89.10;;;;;;4990922;29;20110;-70
2021/07/08 03:03:36;;;;;;;22.40;20.58;;;17.30;89.40;;;;;;5007545;29;20042;-70
2021/07/08 03:06:07;;;;;;;23.17;21.35;;;17.30;89.30;;;;;;4990194;29;20055;-70
2021/07/08 03:08:39;;;;;;;22.80;21.02;;;17.20;89.30;;;;;;4994921;29;20050;-70
2021/07/08 03:11:11;;;;;;;22.25;20.63;;;17.30;89.10;;;;;;4992115;29;20075;-70
2021/07/08 03:13:44;;;;;;;22.83;21.15;;;17.30;89.50;;;;;;4991746;29;20046;-70
2021/07/08 03:16:16;;;;;;;22.65;21.05;;;17.30;89.20;;;;;;4991615;29;20417;-70
2021/07/08 03:18:48;;;;;;;22.40;20.75;;;17.30;88.80;;;;;;4991279;29;20046;-70
2021/07/08 03:21:21;;;;;;;22.42;20.83;;;17.30;89.90;;;;;;4989874;29;20116;-70
2021/07/08 03:23:53;;;;;;;22.90;21.20;;;17.30;89.90;;;;;;4993087;29;20078;-70
2021/07/08 03:26:25;;;;;;;22.83;21.13;;;17.30;88.60;;;;;;4993055;29;20061;-70
2021/07/08 03:28:57;;;;;;;23.27;21.52;;;17.30;89.20;;;;;;4989577;29;20085;-70
2021/07/08 03:31:28;;;;;;;23.25;21.55;;;17.30;88.60;;;;;;4990005;29;20119;-70
2021/07/08 03:34:01;;;;;;;24.50;22.50;;;17.30;88.80;;;;;;4995160;29;20048;-70
2021/07/08 03:36:33;;;;;;;23.52;21.73;;;17.30;89.50;;;;;;4989917;29;20046;-70
2021/07/08 03:39:05;;;;;;;24.70;22.80;;;17.40;89.40;;;;;;4996255;29;20045;-70
2021/07/08 03:41:37;;;;;;;23.67;21.88;;;17.30;89.40;;;;;;4995039;29;20840;-69
2021/07/08 03:44:09;;;;;;;23.80;21.98;;;17.30;89.00;;;;;;4994578;29;20061;-70
2021/07/08 03:46:41;;;;;;;23.42;21.52;;;17.30;88.80;;;;;;4996130;29;20435;-69
2021/07/08 03:49:15;;;;;;;23.50;21.80;;;17.40;89.10;;;;;;4993603;29;20069;-69
2021/07/08 03:51:46;;;;;;;22.75;21.10;;;17.30;89.40;;;;;;4994146;29;20129;-70
2021/07/08 03:54:18;;;;;;;23.10;21.40;;;17.40;88.90;;;;;;4993102;29;20042;-70
2021/07/08 03:56:50;;;;;;;23.67;21.77;;;17.40;89.40;;;;;;4996033;29;20057;-70
2021/07/08 03:59:22;;;;;;;23.77;21.88;;;17.40;88.90;;;;;;4994371;29;20065;-70
2021/07/08 04:01:54;;;;;;;23.58;21.52;;;17.40;88.40;;;;;;4994411;29;20940;-70
2021/07/08 04:04:26;;;;;;;23.73;22.02;;;17.40;88.90;;;;;;4994528;29;20106;-69
2021/07/08 04:06:58;;;;;;;23.23;21.38;;;17.40;89.00;;;;;;4994949;29;20081;-70
2021/07/08 04:09:30;;;;;;;21.33;19.83;;;17.40;89.40;;;;;;4994138;29;20045;-69
2021/07/08 04:12:02;;;;;;;21.52;19.83;;;17.40;89.70;;;;;;4996300;29;20165;-69
2021/07/08 04:14:34;;;;;;;23.85;21.95;;;17.40;89.90;;;;;;4991913;29;20057;-69
2021/07/08 04:17:06;;;;;;;22.77;21.08;;;17.40;89.50;;;;;;5014641;29;20553;-70
2021/07/08 04:19:38;;;;;;;22.65;20.95;;;17.40;89.50;;;;;;4997705;29;20534;-70
2021/07/08 04:22:09;;;;;;;22.65;20.85;;;17.40;89.50;;;;;;4992713;29;20141;-70
2021/07/08 04:24:41;;;;;;;23.38;21.40;;;17.40;89.50;;;;;;4992773;29;20103;-70
2021/07/08 04:27:13;;;;;;;23.70;22.00;;;17.30;90.40;;;;;;4993088;29;20115;-68
2021/07/08 04:29:45;;;;;;;24.77;22.85;;;17.30;90.20;;;;;;4991434;29;20181;-70
2021/07/08 04:32:17;;;;;;;23.58;21.77;;;17.20;90.40;;;;;;5007571;29;20511;-70
2021/07/08 04:34:49;;;;;;;23.48;21.73;;;17.20;90.60;;;;;;4996128;29;20535;-69
2021/07/08 04:37:21;;;;;;;24.02;22.20;;;17.20;90.80;;;;;;4994496;29;20077;-69
2021/07/08 04:39:54;;;;;;;23.63;21.70;;;17.20;91.00;;;;;;5007814;29;20057;-70
2021/07/08 04:42:26;;;;;;;24.73;22.60;;;17.20;90.80;;;;;;4993474;29;20058;-69
2021/07/08 04:44:58;;;;;;;24.25;22.45;;;17.20;91.50;;;;;;4996974;29;20782;-70
2021/07/08 04:47:30;;;;;;;23.98;21.98;;;17.30;91.00;;;;;;4993573;29;20141;-70
2021/07/08 04:50:03;;;;;;;24.88;22.58;;;17.40;90.90;;;;;;4992110;29;20043;-67
2021/07/08 04:52:36;;;;;;;25.83;23.83;;;17.40;91.30;;;;;;4993010;29;20575;-70
2021/07/08 04:55:09;;;;;;;25.80;23.80;;;17.40;91.60;;;;;;4990262;29;20566;-69
2021/07/08 04:57:41;;;;;;;26.45;24.35;;;17.40;92.30;;;;;;4992559;29;20128;-70
2021/07/08 05:00:15;;;;;;;26.98;24.83;;;17.40;91.90;;;;;;4995010;29;20077;-69
2021/07/08 05:02:49;;;;;;;25.02;23.15;;;17.40;92.00;;;;;;4992828;29;20050;-71
2021/07/08 05:05:22;;;;;;;24.88;22.88;;;17.50;91.90;;;;;;4993120;29;20050;-70
2021/07/08 05:07:55;;;;;;;24.58;22.58;;;17.50;91.20;;;;;;4990431;29;20057;-71
2021/07/08 05:10:27;;;;;;;24.85;22.83;;;17.60;90.90;;;;;;4992620;29;20122;-70
2021/07/08 05:13:00;;;;;;;25.15;23.15;;;17.60;91.50;;;;;;4993745;29;20098;-70
2021/07/08 05:15:35;;;;;;;24.15;22.27;;;17.60;91.00;;;;;;4995512;29;20077;-70
2021/07/08 05:18:07;;;;;;;25.30;23.25;;;17.60;90.60;;;;;;5007414;29;20049;-71
2021/07/08 05:20:40;;;;;;;25.00;23.10;;;17.70;90.90;;;;;;4992421;29;20046;-71
2021/07/08 05:23:15;;;;;;;25.17;23.20;;;17.70;90.50;;;;;;5009079;29;20070;-71
2021/07/08 05:25:49;;;;;;;25.65;23.55;;;17.70;90.40;;;;;;5005065;29;20153;-71
2021/07/08 05:28:21;;;;;;;25.27;23.30;;;17.70;90.30;;;;;;4997161;29;20082;-71
2021/07/08 05:30:53;;;;;;;25.05;23.13;;;17.80;90.50;;;;;;4996854;29;20069;-71
2021/07/08 05:33:25;;;;;;;24.55;22.48;;;17.80;90.40;;;;;;4990922;29;20045;-71
2021/07/08 05:35:57;;;;;;;23.70;21.83;;;17.90;90.60;;;;;;4991122;29;20054;-71
2021/07/08 05:38:29;;;;;;;23.75;21.95;;;17.90;90.10;;;;;;4992157;29;20487;-70
2021/07/08 05:41:00;;;;;;;23.85;22.05;;;18.00;89.80;;;;;;4993283;29;20116;-70
2021/07/08 05:43:32;;;;;;;24.35;22.52;;;18.00;89.90;;;;;;4992057;29;20040;-72
2021/07/08 05:46:04;;;;;;;23.88;22.08;;;18.00;90.40;;;;;;4992261;29;20609;-71
2021/07/08 05:48:36;;;;;;;22.48;20.77;;;18.10;90.70;;;;;;5008514;29;20100;-71
2021/07/08 05:51:08;;;;;;;23.50;21.70;;;18.20;90.40;;;;;;4993553;29;20578;-70
2021/07/08 05:53:40;;;;;;;23.15;21.45;;;18.30;89.70;;;;;;4991646;29;20133;-70
2021/07/08 05:56:12;;;;;;;23.42;21.73;;;18.40;90.00;;;;;;4988609;29;20467;-71
2021/07/08 05:58:44;;;;;;;23.63;21.73;;;18.40;90.20;;;;;;4991019;29;20430;-71
2021/07/08 06:01:16;;;;;;;23.90;22.00;;;18.40;90.00;;;;;;4990124;29;20515;-71
2021/07/08 06:03:49;;;;;;;22.58;20.90;;;18.40;89.50;;;;;;4991485;29;20045;-71
2021/07/08 06:06:21;;;;;;;22.08;20.48;;;18.40;89.70;;;;;;4990754;29;20046;-71
2021/07/08 06:08:53;;;;;;;21.52;19.92;;;18.40;88.20;;;;;;4992500;29;20512;-71
2021/07/08 06:11:25;;;;;;;23.17;20.95;;;18.30;88.90;;;;;;4991850;29;20138;-71
2021/07/08 06:13:57;;;;;;;22.85;21.13;;;18.30;89.70;;;;;;4992842;29;20165;-70
2021/07/08 06:16:29;;;;;;;23.10;20.98;;;18.20;90.50;;;;;;5003067;29;20054;-69
2021/07/08 06:19:01;;;;;;;23.70;21.50;;;18.20;90.40;;;;;;4991262;29;20053;-71
2021/07/08 06:21:33;;;;;;;22.02;20.20;;;18.30;90.20;;;;;;4990106;29;20078;-70
2021/07/08 06:24:08;;;;;;;23.38;20.88;;;18.30;89.90;;;;;;4989380;29;20475;-70
2021/07/08 06:26:39;;;;;;;23.02;21.05;;;18.30;89.80;;;;;;4995747;29;20128;-70
2021/07/08 06:29:11;;;;;;;21.60;20.00;;;18.30;90.10;;;;;;4990366;29;20503;-70
2021/07/08 06:31:43;;;;;;;21.92;20.33;;;18.40;89.80;;;;;;4990488;29;20058;-71
2021/07/08 06:34:15;;;;;;;22.70;21.00;;;18.50;89.60;;;;;;4990514;29;20110;-71
2021/07/08 06:36:47;;;;;;;22.08;20.30;;;18.50;89.80;;;;;;4996242;29;20051;-71
2021/07/08 06:39:19;;;;;;;21.95;20.30;;;18.50;89.30;;;;;;5006242;29;20050;-71
2021/07/08 06:41:51;;;;;;;21.77;20.17;;;18.60;89.10;;;;;;4992001;29;20034;-71
2021/07/08 06:44:23;;;;;;;21.55;19.95;;;18.60;89.10;;;;;;4995536;29;20049;-71
2021/07/08 06:46:55;;;;;;;22.25;20.50;;;18.60;88.90;;;;;;4992901;29;20137;-71
2021/07/08 06:49:28;;;;;;;21.52;19.92;;;18.70;88.70;;;;;;4992353;29;20050;-71
2021/07/08 06:52:00;;;;;;;20.92;19.38;;;18.60;88.50;;;;;;4996415;29;20130;-71
2021/07/08 06:54:33;;;;;;;21.20;19.60;;;18.60;88.50;;;;;;4992621;29;20117;-71
2021/07/08 06:57:05;;;;;;;21.27;19.67;;;18.70;88.30;;;;;;4990348;29;20057;-71
2021/07/08 06:59:37;;;;;;;21.13;19.52;;;18.70;88.30;;;;;;4975450;29;20050;-70
2021/07/08 07:02:09;;;;;;;21.48;19.88;;;18.70;88.30;;;;;;5005360;29;20531;-71
2021/07/08 07:04:41;;;;;;;21.33;19.73;;;18.60;87.90;;;;;;4992237;29;20064;-70
2021/07/08 07:07:15;;;;;;;21.90;20.30;;;18.60;88.20;;;;;;4992414;29;20042;-71
2021/07/08 07:09:47;;;;;;;21.73;20.13;;;18.50;88.20;;;;;;5005579;29;20107;-71
2021/07/08 07:12:18;;;;;;;22.42;20.73;;;18.50;88.30;;;;;;4992542;29;20050;-71
2021/07/08 07:14:50;;;;;;;22.13;20.25;;;18.40;88.50;;;;;;4994515;29;20058;-70
2021/07/08 07:17:22;;;;;;;22.73;20.92;;;18.40;88.70;;;;;;4993310;29;20050;-70
2021/07/08 07:19:54;;;;;;;22.25;20.55;;;18.40;88.50;;;;;;4993026;29;20175;-70
2021/07/08 07:22:26;;;;;;;22.95;21.15;;;18.30;88.40;;;;;;4993652;29;20756;-71
2021/07/08 07:24:58;;;;;;;22.88;21.08;;;18.40;88.80;;;;;;4996690;29;20062;-70
2021/07/08 07:27:31;;;;;;;22.70;21.00;;;18.40;88.70;;;;;;4994012;29;20214;-71
2021/07/08 07:30:05;;;;;;;22.83;21.08;;;18.40;88.90;;;;;;4994248;29;20469;-70
2021/07/08 07:32:37;;;;;;;23.45;21.63;;;18.40;89.10;;;;;;4994353;29;20491;-70
2021/07/08 07:35:09;;;;;;;21.95;20.17;;;18.40;89.00;;;;;;4994118;29;20042;-70
2021/07/08 07:37:41;;;;;;;22.20;20.45;;;18.40;88.60;;;;;;4991199;29;20596;-71
2021/07/08 07:40:14;;;;;;;22.23;20.55;;;18.50;88.50;;;;;;4993863;29;20103;-71
2021/07/08 07:42:47;;;;;;;22.48;20.58;;;18.50;88.30;;;;;;4990234;29;20053;-71
2021/07/08 07:45:19;;;;;;;21.30;19.70;;;18.60;88.60;;;;;;4989629;29;21010;-71
2021/07/08 07:47:52;;;;;;;21.80;20.10;;;18.60;88.00;;;;;;4992320;29;20042;-70
2021/07/08 07:50:26;;;;;;;22.20;20.40;;;18.70;87.70;;;;;;4988324;29;20056;-71
2021/07/08 07:52:58;;;;;;;22.27;20.67;;;18.80;87.80;;;;;;4981306;29;20650;-70
2021/07/08 07:55:31;;;;;;;20.80;19.30;;;19.00;87.30;;;;;;4991561;29;20085;-71
2021/07/08 07:58:03;;;;;;;22.13;20.52;;;19.20;86.40;;;;;;4997322;29;20098;-70
2021/07/08 08:00:35;;;;;;;20.20;18.80;;;19.50;86.30;;;;;;4994280;29;20127;-70
2021/07/08 08:03:07;;;;;;;20.70;19.20;;;19.60;86.60;;;;;;4992804;29;20070;-70
2021/07/08 08:05:41;;;;;;;21.08;19.58;;;19.60;85.90;;;;;;4993076;29;20050;-71
2021/07/08 08:08:28;;;;;;;20.23;18.73;;;19.90;85.50;;;;;;4993100;29;20054;-72
2021/07/08 08:11:00;;;;;;;20.85;19.25;;;20.00;85.40;;;;;;5000666;29;20056;-70
2021/07/08 08:13:32;;;;;;;20.98;19.48;;;20.40;85.70;;;;;;4993906;29;20103;-70
2021/07/08 08:16:07;;;;;;;21.27;19.67;;;20.70;84.50;;;;;;4994051;29;20049;-72
2021/07/08 08:18:39;;;;;;;20.73;19.23;;;21.00;83.40;;;;;;4995227;29;20846;-71
2021/07/08 08:21:17;;;;;;;20.75;19.25;;;21.30;82.80;;;;;;4989090;29;20591;-71
2021/07/08 08:23:49;;;;;;;21.02;19.52;;;21.50;82.80;;;;;;4993054;29;20050;-69
2021/07/08 08:26:21;;;;;;;21.05;19.45;;;21.70;82.10;;;;;;4993353;29;20546;-71
2021/07/08 08:28:53;;;;;;;21.55;20.05;;;21.80;81.10;;;;;;4993363;29;20050;-70
2021/07/08 08:31:25;;;;;;;21.80;20.20;;;22.00;80.60;;;;;;4991689;29;20073;-71
2021/07/08 08:33:57;;;;;;;21.75;20.05;;;22.20;80.50;;;;;;4992253;29;20129;-71
2021/07/08 08:36:29;;;;;;;20.80;19.17;;;22.30;78.80;;;;;;5007323;29;20050;-71
2021/07/08 08:39:00;;;;;;;20.27;18.77;;;22.20;78.10;;;;;;5008679;29;20507;-71
2021/07/08 08:41:33;;;;;;;20.27;18.77;;;22.10;79.40;;;;;;4991582;29;20046;-71
2021/07/08 08:44:05;;;;;;;20.35;18.73;;;21.90;79.10;;;;;;4994675;29;20136;-71
2021/07/08 08:46:37;;;;;;;21.00;19.50;;;21.80;78.80;;;;;;4994520;29;20079;-70
2021/07/08 08:49:09;;;;;;;20.58;19.08;;;21.60;78.60;;;;;;4993480;29;20057;-70
2021/07/08 08:51:42;;;;;;;20.38;18.88;;;21.50;79.10;;;;;;5006566;29;20065;-71
2021/07/08 08:54:14;;;;;;;20.52;19.02;;;21.40;79.20;;;;;;4990224;29;20121;-71
2021/07/08 08:56:46;;;;;;;20.35;18.85;;;21.40;79.40;;;;;;5007818;29;20137;-71
2021/07/08 08:59:18;;;;;;;20.17;18.75;;;21.30;79.70;;;;;;4992217;29;20065;-71
2021/07/08 09:02:10;;;;;;;20.27;18.77;;;21.30;79.90;;;;;;5007913;29;20050;-71
2021/07/08 09:04:42;;;;;;;20.00;18.58;;;21.20;79.30;;;;;;4993042;29;20175;-70
2021/07/08 09:07:30;;;;;;;20.30;18.73;;;21.20;79.50;;;;;;4991771;29;20072;-70
2021/07/08 09:10:11;;;;;;;20.80;19.30;;;21.20;79.60;;;;;;4991926;29;20081;-69
2021/07/08 09:12:44;;;;;;;20.58;19.08;;;21.10;79.30;;;;;;5006485;29;20108;-70
2021/07/08 09:15:19;;;;;;;21.00;19.40;;;21.10;80.30;;;;;;4998015;29;20054;-69
2021/07/08 09:17:51;;;;;;;21.30;19.70;;;21.20;79.60;;;;;;4994204;29;20423;-72
2021/07/08 09:20:23;;;;;;;20.85;19.35;;;21.10;80.20;;;;;;4991344;29;20057;-71
2021/07/08 09:23:17;;;;;;;21.23;19.63;;;21.00;79.90;;;;;;4992541;29;20133;-70
2021/07/08 09:25:51;;;;;;;20.75;19.20;;;20.90;79.90;;;;;;5007142;29;20054;-70
2021/07/08 09:28:23;;;;;;;21.08;19.30;;;20.80;81.00;;;;;;4992974;29;20113;-70
2021/07/08 09:31:04;;;;;;;21.73;19.73;;;20.70;80.80;;;;;;4990145;29;20054;-70
2021/07/08 09:33:37;;;;;;;21.92;19.88;;;20.60;81.30;;;;;;4992935;29;20046;-70
2021/07/08 09:36:15;;;;;;;23.55;20.13;;;20.50;80.70;;;;;;4989684;29;20064;-70
2021/07/08 09:38:57;;;;;;;21.70;19.83;;;20.40;82.20;;;;;;4993391;29;20583;-70
2021/07/08 09:41:29;;;;;;;41.53;22.05;;;20.40;82.40;;;;;;4991237;29;20045;-71
2021/07/08 09:44:01;;;;;;;27.35;21.33;;;20.40;82.70;;;;;;4989697;29;20128;-70
2021/07/08 09:46:36;;;;;;;57.40;24.73;;;20.30;82.70;;;;;;4990951;29;20153;-70
2021/07/08 09:49:11;;;;;;;56.35;25.02;;;20.20;83.00;;;;;;4992049;29;20060;-70
2021/07/08 09:51:45;;;;;;;22.20;19.88;;;20.20;83.40;;;;;;4989311;29;20743;-73
2021/07/08 09:54:44;;;;;;;24.80;20.70;;;20.20;83.40;;;;;;4990633;29;20595;-72
2021/07/08 09:57:41;;;;;;;21.85;20.15;;;20.20;83.50;;;;;;4989376;29;20325;-72
2021/07/08 10:00:19;;;;;;;21.77;20.08;;;20.10;83.90;;;;;;4990666;29;20069;-72
2021/07/08 10:02:53;;;;;;;22.70;20.70;;;20.10;84.00;;;;;;4991222;29;20057;-72
2021/07/08 10:05:25;;;;;;;22.65;20.98;;;20.00;84.30;;;;;;4988536;29;20054;-72
2021/07/08 10:07:58;;;;;;;23.48;21.55;;;20.00;84.10;;;;;;4990816;29;20057;-72
2021/07/08 10:10:31;;;;;;;22.83;21.10;;;19.90;84.20;;;;;;4992983;29;20545;-71
2021/07/08 10:13:09;;;;;;;22.23;20.50;;;19.90;84.20;;;;;;4992976;29;20415;-72
2021/07/08 10:15:43;;;;;;;21.98;20.38;;;19.80;84.60;;;;;;4988179;29;20114;-70
2021/07/08 10:18:21;;;;;;;22.65;20.77;;;19.80;84.40;;;;;;4994078;29;20072;-71
2021/07/08 10:20:55;;;;;;;22.10;20.45;;;19.80;84.70;;;;;;4992697;29;20057;-70
2021/07/08 10:23:28;;;;;;;21.83;20.20;;;19.80;85.50;;;;;;4992441;29;20102;-71
2021/07/08 10:26:05;;;;;;;21.85;20.25;;;19.80;84.90;;;;;;4990357;29;20701;-71
2021/07/08 10:28:46;;;;;;;21.40;19.80;;;19.80;85.50;;;;;;4992130;29;20045;-70
2021/07/08 10:31:23;;;;;;;21.52;19.77;;;19.80;86.40;;;;;;4992225;29;20899;-72
2021/07/08 10:34:15;;;;;;;21.60;20.00;;;19.70;86.70;;;;;;4989626;29;20057;-71
2021/07/08 10:36:49;;;;;;;22.10;20.27;;;19.60;86.40;;;;;;4991966;29;20144;-71
2021/07/08 10:39:23;;;;;;;21.95;20.25;;;19.60;86.60;;;;;;4991899;29;20786;-71
2021/07/08 10:41:59;;;;;;;22.20;20.30;;;19.60;86.50;;;;;;4980886;29;20045;-72
2021/07/08 10:44:34;;;;;;;21.90;20.00;;;19.60;87.00;;;;;;4990881;29;20133;-71
2021/07/08 10:47:27;;;;;;;21.48;19.88;;;19.60;87.00;;;;;;4989977;29;20553;-70
2021/07/08 10:50:00;;;;;;;20.77;19.27;;;19.60;86.70;;;;;;4992224;29;20122;-70
2021/07/08 10:52:48;;;;;;;20.77;19.08;;;19.60;86.80;;;;;;4989315;29;20050;-71
2021/07/08 10:55:36;;;;;;;19.95;18.45;;;19.50;85.80;;;;;;4989414;29;20725;-70
2021/07/08 10:58:37;;;;;;;19.15;17.67;;;19.50;85.70;;;;;;4995687;29;20111;-71
2021/07/08 11:01:23;;;;;;;19.73;18.10;;;19.30;85.60;;;;;;4990270;29;20073;-70
2021/07/08 11:04:02;;;;;;;19.60;18.10;;;19.20;85.60;;;;;;4990813;29;20070;-70
2021/07/08 11:06:35;;;;;;;19.85;18.08;;;19.10;85.80;;;;;;4993917;29;20060;-71
2021/07/08 11:09:16;;;;;;;19.63;17.92;;;19.10;86.30;;;;;;4991947;29;20050;-71
2021/07/08 11:11:49;;;;;;;20.33;18.55;;;18.90;86.20;;;;;;4988624;29;20100;-71
2021/07/08 11:14:24;;;;;;;27.20;18.45;;;18.90;86.90;;;;;;4989739;29;20113;-70
2021/07/08 11:17:12;;;;;;;19.52;17.80;;;18.80;86.10;;;;;;4993213;29;20149;-70
2021/07/08 11:19:47;;;;;;;18.85;17.35;;;18.80;85.80;;;;;;4990400;29;20046;-70
2021/07/08 11:22:22;;;;;;;18.88;17.38;;;18.80;85.80;;;;;;4991764;29;20073;-69
2021/07/08 11:24:55;;;;;;;18.45;17.10;;;18.70;85.80;;;;;;4992131;29;20441;-70
2021/07/08 11:27:26;;;;;;;18.27;16.90;;;18.70;85.40;;;;;;4989870;29;20142;-69
2021/07/08 11:30:11;;;;;;;18.50;17.10;;;18.70;85.80;;;;;;4990821;29;20156;-69
2021/07/08 11:35:25;;;;;;;20.10;18.40;;;18.70;85.50;;;;;;4990391;29;20049;-69
2021/07/08 11:38:14;;;;;;;18.90;17.30;;;18.50;86.70;;;;;;4989447;29;20042;-69
2021/07/08 11:40:49;;;;;;;19.30;17.58;;;18.50;86.80;;;;;;4996089;29;20050;-70
2021/07/08 11:43:33;;;;;;;18.50;17.10;;;18.50;87.10;;;;;;4990781;29;20042;-69
2021/07/08 11:46:06;;;;;;;18.60;17.20;;;18.50;86.90;;;;;;4990680;29;20050;-70
2021/07/08 11:48:43;;;;;;;19.20;17.35;;;18.50;87.10;;;;;;4992702;29;20050;-70
2021/07/08 11:51:19;;;;;;;17.93;16.63;;;18.40;85.80;;;;;;4991289;29;20061;-70
2021/07/08 11:53:51;;;;;;;17.90;16.50;;;18.10;82.00;;;;;;4988874;29;20295;-70
2021/07/08 11:56:24;;;;;;;18.00;16.45;;;17.90;83.60;;;;;;4988878;29;20073;-69
2021/07/08 11:59:04;;;;;;;17.23;15.85;;;17.90;85.00;;;;;;4994683;29;20113;-69
2021/07/08 12:01:40;;;;;;;17.27;15.70;;;17.80;83.70;;;;;;4994128;29;20061;-69
2021/07/08 12:04:21;;;;;;;17.25;15.70;;;17.80;84.10;;;;;;4993973;29;20054;-71
2021/07/08 12:06:54;;;;;;;32.95;16.42;;;17.90;84.60;;;;;;4992440;29;20055;-69
2021/07/08 12:09:27;;;;;;;17.00;15.52;;;17.80;83.80;;;;;;4995902;29;20142;-69
2021/07/08 12:12:03;;;;;;;17.13;15.68;;;17.70;83.80;;;;;;4992720;29;20107;-70
2021/07/08 12:14:35;;;;;;;16.95;15.55;;;17.60;83.70;;;;;;4993358;29;20532;-69
2021/07/08 12:17:07;;;;;;;17.98;16.50;;;17.60;83.70;;;;;;4993767;29;20061;-69
2021/07/08 12:20:09;;;;;;;18.60;16.80;;;17.60;83.70;;;;;;4997662;29;20885;-69
2021/07/08 12:22:59;;;;;;;17.85;16.55;;;17.50;84.10;;;;;;4995377;29;20050;-69
2021/07/08 12:25:31;;;;;;;18.05;16.45;;;17.50;84.20;;;;;;4991494;29;20042;-69
2021/07/08 12:28:04;;;;;;;30.27;17.20;;;17.50;83.80;;;;;;4994851;29;20162;-69
2021/07/08 12:30:36;;;;;;;18.30;16.10;;;17.40;84.60;;;;;;4994625;29;20098;-68
2021/07/08 12:33:11;;;;;;;17.70;16.40;;;17.40;84.50;;;;;;4995010;29;20406;-69
2021/07/08 12:35:48;;;;;;;18.40;17.00;;;17.30;84.30;;;;;;4994690;29;20554;-68
2021/07/08 12:38:20;;;;;;;17.60;16.30;;;17.20;84.70;;;;;;4992279;29;20046;-69
2021/07/08 12:41:00;;;;;;;17.85;16.55;;;17.10;85.20;;;;;;4990724;29;20114;-68
2021/07/08 12:43:32;;;;;;;17.67;16.38;;;17.10;84.60;;;;;;4992535;29;20145;-70
2021/07/08 12:46:12;;;;;;;17.52;16.05;;;17.00;84.80;;;;;;4993777;29;20102;-69
2021/07/08 12:48:45;;;;;;;17.90;16.20;;;17.00;84.00;;;;;;4993577;29;20070;-70
2021/07/08 12:51:17;;;;;;;17.42;16.10;;;17.00;84.10;;;;;;4992363;29;20412;-70
2021/07/08 12:53:49;;;;;;;17.42;16.13;;;17.00;83.70;;;;;;5006572;29;20053;-69
2021/07/08 12:56:23;;;;;;;18.35;16.98;;;17.00;84.00;;;;;;4992666;29;20507;-69
2021/07/08 12:59:00;;;;;;;18.45;17.05;;;17.00;85.10;;;;;;4991967;29;20134;-70
2021/07/08 13:01:31;;;;;;;18.33;16.92;;;17.20;85.10;;;;;;4991948;29;20118;-70
2021/07/08 13:04:04;;;;;;;18.48;17.17;;;17.50;85.30;;;;;;4994022;29;20117;-70
2021/07/08 13:06:36;;;;;;;19.00;17.50;;;17.80;84.50;;;;;;4994144;29;20070;-69